Terminal Aerodrome Forecast
Issued by NWS Tuscon, AZ

Home | Current Version | Previous Version | Text Only | Print | Product List | Glossary On
Versions: 1 2 3 4 5 6 7 8 9 10 11 12 13 14 15 16 17 18
000
FTUS45 KTWC 040704 AAA
TAFDUG
TAF AMD
KDUG 040704Z 0407/0506 15006KT P6SM VCTS BKN080CB OVC150
     FM040900 15006KT P6SM FEW080 BKN250
     FM041300 09005KT P6SM SCT080 BKN250
     FM041900 29008KT P6SM SCT080 SCT150
     FM042200 26010KT P6SM VCTS SCT080CB BKN160
     FM050200 23006KT P6SM VCSH SCT090 BKN200=

USA.gov is the U.S. government's official web portal to all federal, state and local government web resources and services.